sensor_id;sensor_type;location;lat;lon;timestamp;P1;durP1;ratioP1;P2;durP2;ratioP2
60312;SDS011;46158;52.850;6.970;2024-03-23T00:54:22;16.38;;;3.45;;
60312;SDS011;46158;52.850;6.970;2024-03-23T00:56:48;16.13;;;3.63;;
60312;SDS011;46158;52.850;6.970;2024-03-23T00:59:13;17.48;;;3.80;;
60312;SDS011;46158;52.850;6.970;2024-03-23T01:01:39;20.08;;;3.75;;
60312;SDS011;46158;52.850;6.970;2024-03-23T01:04:05;16.13;;;3.80;;
60312;SDS011;46158;52.850;6.970;2024-03-23T01:06:30;16.90;;;3.63;;
60312;SDS011;46158;52.850;6.970;2024-03-23T01:08:56;17.85;;;3.75;;
60312;SDS011;46158;52.850;6.970;2024-03-23T01:11:22;14.45;;;3.17;;
60312;SDS011;46158;52.850;6.970;2024-03-23T01:13:47;15.13;;;3.28;;
60312;SDS011;46158;52.850;6.970;2024-03-23T01:16:13;17.35;;;3.42;;
60312;SDS011;46158;52.850;6.970;2024-03-23T01:18:38;15.88;;;3.83;;
60312;SDS011;46158;52.850;6.970;2024-03-23T01:21:04;18.33;;;4.18;;
60312;SDS011;46158;52.850;6.970;2024-03-23T01:23:29;17.27;;;3.58;;
60312;SDS011;46158;52.850;6.970;2024-03-23T01:25:55;16.23;;;3.55;;
60312;SDS011;46158;52.850;6.970;2024-03-23T01:28:21;15.13;;;3.22;;
60312;SDS011;46158;52.850;6.970;2024-03-23T01:30:47;17.35;;;3.50;;
60312;SDS011;46158;52.850;6.970;2024-03-23T01:33:13;15.93;;;3.50;;
60312;SDS011;46158;52.850;6.970;2024-03-23T01:35:38;17.42;;;3.47;;
60312;SDS011;46158;52.850;6.970;2024-03-23T01:38:04;15.63;;;3.50;;
60312;SDS011;46158;52.850;6.970;2024-03-23T01:40:30;14.70;;;3.38;;
60312;SDS011;46158;52.850;6.970;2024-03-23T01:42:57;18.45;;;3.45;;
60312;SDS011;46158;52.850;6.970;2024-03-23T01:45:24;17.33;;;3.22;;
60312;SDS011;46158;52.850;6.970;2024-03-23T01:47:50;17.20;;;3.65;;
60312;SDS011;46158;52.850;6.970;2024-03-23T01:50:18;19.25;;;3.78;;
60312;SDS011;46158;52.850;6.970;2024-03-23T01:52:44;16.73;;;3.60;;
60312;SDS011;46158;52.850;6.970;2024-03-23T01:55:10;14.10;;;3.58;;
60312;SDS011;46158;52.850;6.970;2024-03-23T01:57:36;13.85;;;3.38;;
60312;SDS011;46158;52.850;6.970;2024-03-23T02:00:02;17.25;;;3.58;;
60312;SDS011;46158;52.850;6.970;2024-03-23T02:02:28;16.67;;;3.63;;
60312;SDS011;46158;52.850;6.970;2024-03-23T02:04:53;18.08;;;3.50;;
60312;SDS011;46158;52.850;6.970;2024-03-23T02:07:19;13.18;;;3.10;;
60312;SDS011;46158;52.850;6.970;2024-03-23T02:09:44;15.80;;;3.05;;
60312;SDS011;46158;52.850;6.970;2024-03-23T02:12:11;17.10;;;3.45;;
60312;SDS011;46158;52.850;6.970;2024-03-23T02:14:36;15.35;;;3.22;;
60312;SDS011;46158;52.850;6.970;2024-03-23T02:17:02;13.95;;;3.30;;
60312;SDS011;46158;52.850;6.970;2024-03-23T02:19:27;13.85;;;3.15;;
60312;SDS011;46158;52.850;6.970;2024-03-23T02:21:53;16.80;;;3.90;;
60312;SDS011;46158;52.850;6.970;2024-03-23T02:24:18;16.90;;;3.63;;
60312;SDS011;46158;52.850;6.970;2024-03-23T02:26:44;16.42;;;3.40;;
60312;SDS011;46158;52.850;6.970;2024-03-23T02:29:10;15.40;;;3.28;;
60312;SDS011;46158;52.850;6.970;2024-03-23T02:31:35;16.88;;;3.67;;
60312;SDS011;46158;52.850;6.970;2024-03-23T02:34:01;15.73;;;3.60;;
60312;SDS011;46158;52.850;6.970;2024-03-23T02:36:26;14.75;;;3.38;;
60312;SDS011;46158;52.850;6.970;2024-03-23T02:38:52;14.77;;;3.53;;
60312;SDS011;46158;52.850;6.970;2024-03-23T02:41:17;13.48;;;3.17;;
60312;SDS011;46158;52.850;6.970;2024-03-23T02:43:48;16.63;;;3.75;;
60312;SDS011;46158;52.850;6.970;2024-03-23T02:46:17;13.23;;;2.87;;
60312;SDS011;46158;52.850;6.970;2024-03-23T02:48:43;14.90;;;3.35;;
60312;SDS011;46158;52.850;6.970;2024-03-23T02:51:08;15.45;;;3.20;;
60312;SDS011;46158;52.850;6.970;2024-03-23T02:53:34;16.10;;;3.20;;
60312;SDS011;46158;52.850;6.970;2024-03-23T02:56:00;15.25;;;3.33;;
60312;SDS011;46158;52.850;6.970;2024-03-23T02:58:25;15.32;;;3.25;;
60312;SDS011;46158;52.850;6.970;2024-03-23T03:00:51;17.42;;;3.78;;
60312;SDS011;46158;52.850;6.970;2024-03-23T03:03:16;16.52;;;3.60;;
60312;SDS011;46158;52.850;6.970;2024-03-23T03:05:42;14.38;;;3.55;;
60312;SDS011;46158;52.850;6.970;2024-03-23T03:08:08;14.40;;;3.22;;
60312;SDS011;46158;52.850;6.970;2024-03-23T03:10:33;13.88;;;3.40;;
60312;SDS011;46158;52.850;6.970;2024-03-23T03:13:01;14.27;;;3.30;;
60312;SDS011;46158;52.850;6.970;2024-03-23T03:15:27;13.98;;;3.22;;
60312;SDS011;46158;52.850;6.970;2024-03-23T03:17:53;14.48;;;3.42;;
60312;SDS011;46158;52.850;6.970;2024-03-23T03:20:19;14.65;;;3.38;;
60312;SDS011;46158;52.850;6.970;2024-03-23T03:22:46;12.80;;;3.10;;
60312;SDS011;46158;52.850;6.970;2024-03-23T03:25:12;15.13;;;3.67;;
60312;SDS011;46158;52.850;6.970;2024-03-23T03:27:38;15.35;;;3.13;;
60312;SDS011;46158;52.850;6.970;2024-03-23T03:30:03;16.45;;;3.30;;
60312;SDS011;46158;52.850;6.970;2024-03-23T03:32:31;17.13;;;3.65;;
60312;SDS011;46158;52.850;6.970;2024-03-23T03:34:57;15.68;;;3.42;;
60312;SDS011;46158;52.850;6.970;2024-03-23T03:37:23;15.02;;;3.55;;
60312;SDS011;46158;52.850;6.970;2024-03-23T03:39:49;14.52;;;3.30;;
60312;SDS011;46158;52.850;6.970;2024-03-23T03:42:15;14.95;;;3.30;;
60312;SDS011;46158;52.850;6.970;2024-03-23T03:44:40;15.15;;;3.30;;
60312;SDS011;46158;52.850;6.970;2024-03-23T03:47:06;11.95;;;3.33;;
60312;SDS011;46158;52.850;6.970;2024-03-23T03:49:32;13.23;;;3.08;;
60312;SDS011;46158;52.850;6.970;2024-03-23T03:51:57;13.05;;;3.28;;
60312;SDS011;46158;52.850;6.970;2024-03-23T03:54:23;15.43;;;3.30;;
60312;SDS011;46158;52.850;6.970;2024-03-23T03:56:48;15.45;;;3.67;;
60312;SDS011;46158;52.850;6.970;2024-03-23T03:59:15;13.65;;;2.92;;
60312;SDS011;46158;52.850;6.970;2024-03-23T04:01:40;13.38;;;3.28;;
60312;SDS011;46158;52.850;6.970;2024-03-23T04:04:06;14.80;;;3.42;;
60312;SDS011;46158;52.850;6.970;2024-03-23T04:06:32;12.50;;;3.28;;
60312;SDS011;46158;52.850;6.970;2024-03-23T04:08:58;12.93;;;3.08;;
60312;SDS011;46158;52.850;6.970;2024-03-23T04:11:24;15.00;;;3.25;;
60312;SDS011;46158;52.850;6.970;2024-03-23T04:13:50;12.88;;;3.15;;
60312;SDS011;46158;52.850;6.970;2024-03-23T04:16:28;15.13;;;3.03;;
60312;SDS011;46158;52.850;6.970;2024-03-23T04:18:55;11.73;;;2.92;;
60312;SDS011;46158;52.850;6.970;2024-03-23T04:21:21;15.45;;;3.33;;
60312;SDS011;46158;52.850;6.970;2024-03-23T04:23:47;14.50;;;3.00;;
60312;SDS011;46158;52.850;6.970;2024-03-23T04:26:13;13.75;;;3.30;;
60312;SDS011;46158;52.850;6.970;2024-03-23T04:28:40;13.30;;;2.90;;
60312;SDS011;46158;52.850;6.970;2024-03-23T04:31:05;11.70;;;3.00;;
60312;SDS011;46158;52.850;6.970;2024-03-23T04:33:31;16.02;;;3.33;;
60312;SDS011;46158;52.850;6.970;2024-03-23T04:35:57;14.70;;;3.20;;
60312;SDS011;46158;52.850;6.970;2024-03-23T04:38:22;16.52;;;3.33;;
60312;SDS011;46158;52.850;6.970;2024-03-23T04:40:55;12.40;;;2.85;;
60312;SDS011;46158;52.850;6.970;2024-03-23T04:43:21;13.55;;;3.08;;
60312;SDS011;46158;52.850;6.970;2024-03-23T04:45:47;14.05;;;2.90;;
60312;SDS011;46158;52.850;6.970;2024-03-23T04:48:12;12.07;;;3.00;;
60312;SDS011;46158;52.850;6.970;2024-03-23T04:50:38;15.32;;;3.00;;
60312;SDS011;46158;52.850;6.970;2024-03-23T04:53:03;12.73;;;3.00;;
60312;SDS011;46158;52.850;6.970;2024-03-23T04:55:29;15.07;;;2.85;;
60312;SDS011;46158;52.850;6.970;2024-03-23T04:57:56;9.55;;;2.95;;
60312;SDS011;46158;52.850;6.970;2024-03-23T05:00:21;12.27;;;3.00;;
60312;SDS011;46158;52.850;6.970;2024-03-23T05:02:48;11.98;;;2.67;;
60312;SDS011;46158;52.850;6.970;2024-03-23T05:05:14;12.18;;;3.10;;
60312;SDS011;46158;52.850;6.970;2024-03-23T05:07:39;11.70;;;2.90;;
60312;SDS011;46158;52.850;6.970;2024-03-23T05:10:06;13.73;;;3.00;;
60312;SDS011;46158;52.850;6.970;2024-03-23T05:12:36;11.82;;;2.95;;
60312;SDS011;46158;52.850;6.970;2024-03-23T05:15:03;13.43;;;2.92;;
60312;SDS011;46158;52.850;6.970;2024-03-23T05:17:30;12.20;;;2.80;;
60312;SDS011;46158;52.850;6.970;2024-03-23T05:19:59;13.15;;;3.22;;
60312;SDS011;46158;52.850;6.970;2024-03-23T05:22:25;11.90;;;2.85;;
60312;SDS011;46158;52.850;6.970;2024-03-23T05:24:52;14.02;;;3.00;;
60312;SDS011;46158;52.850;6.970;2024-03-23T05:27:18;11.23;;;2.65;;
60312;SDS011;46158;52.850;6.970;2024-03-23T05:29:43;15.60;;;2.95;;
60312;SDS011;46158;52.850;6.970;2024-03-23T05:32:09;12.05;;;2.80;;
60312;SDS011;46158;52.850;6.970;2024-03-23T05:34:35;12.57;;;2.92;;
60312;SDS011;46158;52.850;6.970;2024-03-23T05:37:00;8.80;;;2.75;;
60312;SDS011;46158;52.850;6.970;2024-03-23T05:39:26;10.90;;;2.72;;
60312;SDS011;46158;52.850;6.970;2024-03-23T05:41:51;14.15;;;3.40;;
60312;SDS011;46158;52.850;6.970;2024-03-23T05:44:17;13.77;;;3.28;;
60312;SDS011;46158;52.850;6.970;2024-03-23T05:46:43;13.82;;;2.85;;
60312;SDS011;46158;52.850;6.970;2024-03-23T05:49:13;11.73;;;2.90;;
60312;SDS011;46158;52.850;6.970;2024-03-23T05:51:39;14.70;;;3.35;;
60312;SDS011;46158;52.850;6.970;2024-03-23T05:54:05;9.30;;;2.50;;
60312;SDS011;46158;52.850;6.970;2024-03-23T05:56:30;12.48;;;2.92;;
60312;SDS011;46158;52.850;6.970;2024-03-23T05:58:56;10.57;;;2.80;;
60312;SDS011;46158;52.850;6.970;2024-03-23T06:01:22;9.27;;;2.65;;
60312;SDS011;46158;52.850;6.970;2024-03-23T06:03:48;11.82;;;3.13;;
60312;SDS011;46158;52.850;6.970;2024-03-23T06:06:13;9.98;;;2.85;;
60312;SDS011;46158;52.850;6.970;2024-03-23T06:08:39;12.13;;;2.70;;
60312;SDS011;46158;52.850;6.970;2024-03-23T06:11:05;12.65;;;3.10;;
60312;SDS011;46158;52.850;6.970;2024-03-23T06:13:31;10.13;;;2.50;;
60312;SDS011;46158;52.850;6.970;2024-03-23T06:15:59;14.00;;;2.90;;
60312;SDS011;46158;52.850;6.970;2024-03-23T06:18:27;12.45;;;2.90;;
60312;SDS011;46158;52.850;6.970;2024-03-23T06:20:53;11.70;;;2.95;;
60312;SDS011;46158;52.850;6.970;2024-03-23T06:23:19;11.45;;;2.80;;
60312;SDS011;46158;52.850;6.970;2024-03-23T06:25:45;8.43;;;2.45;;
60312;SDS011;46158;52.850;6.970;2024-03-23T06:28:12;10.15;;;2.95;;
60312;SDS011;46158;52.850;6.970;2024-03-23T06:30:37;12.80;;;3.30;;
60312;SDS011;46158;52.850;6.970;2024-03-23T06:33:03;10.70;;;2.53;;
60312;SDS011;46158;52.850;6.970;2024-03-23T06:35:30;10.35;;;2.40;;
60312;SDS011;46158;52.850;6.970;2024-03-23T06:37:56;11.00;;;2.60;;
60312;SDS011;46158;52.850;6.970;2024-03-23T06:40:23;12.35;;;2.63;;
60312;SDS011;46158;52.850;6.970;2024-03-23T06:42:49;13.57;;;2.97;;
60312;SDS011;46158;52.850;6.970;2024-03-23T06:45:15;11.95;;;2.80;;
60312;SDS011;46158;52.850;6.970;2024-03-23T06:47:41;13.05;;;3.00;;
60312;SDS011;46158;52.850;6.970;2024-03-23T06:50:07;13.82;;;2.92;;
60312;SDS011;46158;52.850;6.970;2024-03-23T06:52:32;13.73;;;2.83;;
60312;SDS011;46158;52.850;6.970;2024-03-23T06:54:58;13.82;;;3.05;;
60312;SDS011;46158;52.850;6.970;2024-03-23T06:57:24;11.45;;;3.03;;
60312;SDS011;46158;52.850;6.970;2024-03-23T06:59:49;15.90;;;3.20;;
60312;SDS011;46158;52.850;6.970;2024-03-23T07:02:15;13.52;;;2.60;;
60312;SDS011;46158;52.850;6.970;2024-03-23T07:04:41;12.25;;;2.70;;
60312;SDS011;46158;52.850;6.970;2024-03-23T07:07:07;16.88;;;3.33;;
60312;SDS011;46158;52.850;6.970;2024-03-23T07:09:32;15.07;;;2.92;;
60312;SDS011;46158;52.850;6.970;2024-03-23T07:11:58;14.25;;;2.88;;
60312;SDS011;46158;52.850;6.970;2024-03-23T07:14:24;10.15;;;2.70;;
60312;SDS011;46158;52.850;6.970;2024-03-23T07:16:50;11.93;;;2.72;;
60312;SDS011;46158;52.850;6.970;2024-03-23T07:19:16;11.65;;;2.47;;
60312;SDS011;46158;52.850;6.970;2024-03-23T07:21:45;11.48;;;2.80;;
60312;SDS011;46158;52.850;6.970;2024-03-23T07:24:11;10.95;;;2.60;;
60312;SDS011;46158;52.850;6.970;2024-03-23T07:26:37;10.75;;;3.00;;
60312;SDS011;46158;52.850;6.970;2024-03-23T07:29:03;11.48;;;2.50;;
60312;SDS011;46158;52.850;6.970;2024-03-23T07:31:29;10.68;;;2.55;;
60312;SDS011;46158;52.850;6.970;2024-03-23T07:33:55;13.10;;;2.53;;
60312;SDS011;46158;52.850;6.970;2024-03-23T07:36:20;9.75;;;2.72;;
60312;SDS011;46158;52.850;6.970;2024-03-23T07:38:46;10.75;;;2.55;;
60312;SDS011;46158;52.850;6.970;2024-03-23T07:41:14;9.23;;;2.40;;
60312;SDS011;46158;52.850;6.970;2024-03-23T07:43:44;13.65;;;2.38;;
60312;SDS011;46158;52.850;6.970;2024-03-23T07:46:11;12.32;;;2.72;;
60312;SDS011;46158;52.850;6.970;2024-03-23T07:48:37;7.40;;;2.30;;
60312;SDS011;46158;52.850;6.970;2024-03-23T07:51:05;11.38;;;2.10;;
60312;SDS011;46158;52.850;6.970;2024-03-23T07:53:33;13.55;;;3.00;;
60312;SDS011;46158;52.850;6.970;2024-03-23T07:58:33;14.15;;;2.92;;
60312;SDS011;46158;52.850;6.970;2024-03-23T08:03:35;14.20;;;2.78;;
60312;SDS011;46158;52.850;6.970;2024-03-23T08:08:37;13.10;;;2.60;;
60312;SDS011;46158;52.850;6.970;2024-03-23T08:11:03;12.63;;;2.67;;
60312;SDS011;46158;52.850;6.970;2024-03-23T08:13:30;15.25;;;3.47;;
60312;SDS011;46158;52.850;6.970;2024-03-23T08:15:56;11.40;;;2.85;;
60312;SDS011;46158;52.850;6.970;2024-03-23T08:18:22;12.18;;;2.80;;
60312;SDS011;46158;52.850;6.970;2024-03-23T08:23:27;15.23;;;2.80;;
60312;SDS011;46158;52.850;6.970;2024-03-23T08:28:26;14.48;;;2.85;;
60312;SDS011;46158;52.850;6.970;2024-03-23T08:30:52;10.52;;;2.65;;
60312;SDS011;46158;52.850;6.970;2024-03-23T08:33:18;8.63;;;2.33;;
60312;SDS011;46158;52.850;6.970;2024-03-23T08:36:00;11.57;;;2.65;;
60312;SDS011;46158;52.850;6.970;2024-03-23T08:38:27;9.57;;;2.45;;
60312;SDS011;46158;52.850;6.970;2024-03-23T08:41:00;10.20;;;2.70;;
60312;SDS011;46158;52.850;6.970;2024-03-23T08:43:30;12.98;;;2.70;;
60312;SDS011;46158;52.850;6.970;2024-03-23T08:46:09;10.48;;;2.40;;
60312;SDS011;46158;52.850;6.970;2024-03-23T08:48:37;16.35;;;2.83;;
60312;SDS011;46158;52.850;6.970;2024-03-23T08:51:04;11.77;;;2.70;;
60312;SDS011;46158;52.850;6.970;2024-03-23T08:53:31;10.38;;;2.83;;
60312;SDS011;46158;52.850;6.970;2024-03-23T08:55:58;9.55;;;2.22;;
60312;SDS011;46158;52.850;6.970;2024-03-23T08:58:24;11.52;;;2.83;;
60312;SDS011;46158;52.850;6.970;2024-03-23T09:00:51;11.80;;;2.40;;
60312;SDS011;46158;52.850;6.970;2024-03-23T09:03:17;9.73;;;2.67;;
60312;SDS011;46158;52.850;6.970;2024-03-23T09:05:43;9.68;;;2.22;;
60312;SDS011;46158;52.850;6.970;2024-03-23T09:08:09;10.23;;;2.38;;
60312;SDS011;46158;52.850;6.970;2024-03-23T09:10:38;11.68;;;2.33;;
60312;SDS011;46158;52.850;6.970;2024-03-23T09:13:04;12.98;;;2.72;;
60312;SDS011;46158;52.850;6.970;2024-03-23T09:15:29;10.13;;;2.53;;
60312;SDS011;46158;52.850;6.970;2024-03-23T09:17:56;10.00;;;2.45;;
60312;SDS011;46158;52.850;6.970;2024-03-23T09:20:23;8.93;;;2.55;;
60312;SDS011;46158;52.850;6.970;2024-03-23T09:22:49;8.80;;;2.50;;
60312;SDS011;46158;52.850;6.970;2024-03-23T09:25:14;10.27;;;2.55;;
60312;SDS011;46158;52.850;6.970;2024-03-23T09:27:40;11.65;;;2.50;;
60312;SDS011;46158;52.850;6.970;2024-03-23T09:30:06;11.32;;;2.40;;
60312;SDS011;46158;52.850;6.970;2024-03-23T09:32:32;11.48;;;2.70;;
60312;SDS011;46158;52.850;6.970;2024-03-23T09:34:57;4.53;;;1.90;;
60312;SDS011;46158;52.850;6.970;2024-03-23T09:37:23;8.20;;;2.20;;
60312;SDS011;46158;52.850;6.970;2024-03-23T09:39:49;8.65;;;2.33;;
60312;SDS011;46158;52.850;6.970;2024-03-23T09:42:14;8.60;;;2.20;;
60312;SDS011;46158;52.850;6.970;2024-03-23T09:44:40;8.55;;;2.30;;
60312;SDS011;46158;52.850;6.970;2024-03-23T09:47:06;5.80;;;2.10;;
60312;SDS011;46158;52.850;6.970;2024-03-23T09:49:33;7.80;;;2.22;;
60312;SDS011;46158;52.850;6.970;2024-03-23T09:52:01;9.73;;;2.20;;
60312;SDS011;46158;52.850;6.970;2024-03-23T09:54:28;6.63;;;2.08;;
60312;SDS011;46158;52.850;6.970;2024-03-23T09:56:53;8.80;;;2.10;;
60312;SDS011;46158;52.850;6.970;2024-03-23T09:59:19;6.20;;;2.00;;
60312;SDS011;46158;52.850;6.970;2024-03-23T10:01:44;8.45;;;2.50;;
60312;SDS011;46158;52.850;6.970;2024-03-23T10:04:11;8.82;;;2.10;;
60312;SDS011;46158;52.850;6.970;2024-03-23T10:06:38;11.18;;;2.50;;
60312;SDS011;46158;52.850;6.970;2024-03-23T10:09:05;4.80;;;1.80;;
60312;SDS011;46158;52.850;6.970;2024-03-23T10:11:42;6.20;;;1.90;;
60312;SDS011;46158;52.850;6.970;2024-03-23T10:14:09;6.85;;;2.00;;
60312;SDS011;46158;52.850;6.970;2024-03-23T10:16:34;10.35;;;2.30;;
60312;SDS011;46158;52.850;6.970;2024-03-23T10:19:00;7.20;;;2.03;;
60312;SDS011;46158;52.850;6.970;2024-03-23T10:21:25;9.30;;;2.25;;
60312;SDS011;46158;52.850;6.970;2024-03-23T10:23:51;8.35;;;2.15;;
60312;SDS011;46158;52.850;6.970;2024-03-23T10:26:17;7.72;;;2.13;;
60312;SDS011;46158;52.850;6.970;2024-03-23T10:31:37;7.95;;;2.25;;
60312;SDS011;46158;52.850;6.970;2024-03-23T10:34:06;8.18;;;2.20;;
60312;SDS011;46158;52.850;6.970;2024-03-23T10:36:32;5.35;;;1.90;;
60312;SDS011;46158;52.850;6.970;2024-03-23T10:39:02;8.68;;;2.20;;
60312;SDS011;46158;52.850;6.970;2024-03-23T10:41:31;9.80;;;2.22;;
60312;SDS011;46158;52.850;6.970;2024-03-23T10:43:57;6.30;;;2.00;;
60312;SDS011;46158;52.850;6.970;2024-03-23T10:46:26;8.75;;;2.10;;
60312;SDS011;46158;52.850;6.970;2024-03-23T10:48:52;5.72;;;1.90;;
60312;SDS011;46158;52.850;6.970;2024-03-23T10:51:17;7.70;;;1.88;;
60312;SDS011;46158;52.850;6.970;2024-03-23T10:53:43;7.30;;;2.00;;
60312;SDS011;46158;52.850;6.970;2024-03-23T10:56:11;8.07;;;2.17;;
60312;SDS011;46158;52.850;6.970;2024-03-23T10:58:39;7.97;;;2.03;;
60312;SDS011;46158;52.850;6.970;2024-03-23T11:01:10;7.82;;;1.92;;
60312;SDS011;46158;52.850;6.970;2024-03-23T11:03:36;6.07;;;1.85;;
60312;SDS011;46158;52.850;6.970;2024-03-23T11:06:04;9.13;;;1.80;;
60312;SDS011;46158;52.850;6.970;2024-03-23T11:11:18;5.88;;;1.90;;
60312;SDS011;46158;52.850;6.970;2024-03-23T11:13:47;7.25;;;2.03;;
60312;SDS011;46158;52.850;6.970;2024-03-23T11:16:14;4.65;;;1.92;;
60312;SDS011;46158;52.850;6.970;2024-03-23T11:18:48;5.80;;;1.80;;
60312;SDS011;46158;52.850;6.970;2024-03-23T11:24:18;7.63;;;2.25;;
60312;SDS011;46158;52.850;6.970;2024-03-23T11:26:45;7.50;;;2.20;;
60312;SDS011;46158;52.850;6.970;2024-03-23T11:29:12;4.50;;;1.65;;
60312;SDS011;46158;52.850;6.970;2024-03-23T11:31:45;5.32;;;1.67;;
60312;SDS011;46158;52.850;6.970;2024-03-23T11:34:17;6.15;;;1.80;;
60312;SDS011;46158;52.850;6.970;2024-03-23T11:36:44;4.75;;;1.70;;
60312;SDS011;46158;52.850;6.970;2024-03-23T11:39:11;5.75;;;1.90;;
60312;SDS011;46158;52.850;6.970;2024-03-23T11:41:45;5.00;;;1.70;;
60312;SDS011;46158;52.850;6.970;2024-03-23T11:44:18;3.38;;;1.60;;
60312;SDS011;46158;52.850;6.970;2024-03-23T11:46:45;6.10;;;1.83;;
60312;SDS011;46158;52.850;6.970;2024-03-23T11:49:23;5.70;;;1.60;;
60312;SDS011;46158;52.850;6.970;2024-03-23T11:51:51;9.95;;;2.05;;
60312;SDS011;46158;52.850;6.970;2024-03-23T11:54:25;4.72;;;1.50;;
60312;SDS011;46158;52.850;6.970;2024-03-23T11:59:33;8.57;;;1.90;;
60312;SDS011;46158;52.850;6.970;2024-03-23T12:01:59;4.20;;;1.75;;
60312;SDS011;46158;52.850;6.970;2024-03-23T12:04:28;5.68;;;1.80;;
60312;SDS011;46158;52.850;6.970;2024-03-23T12:09:34;6.90;;;1.77;;
60312;SDS011;46158;52.850;6.970;2024-03-23T12:12:05;4.82;;;1.70;;
60312;SDS011;46158;52.850;6.970;2024-03-23T12:17:13;4.70;;;1.55;;
60312;SDS011;46158;52.850;6.970;2024-03-23T12:22:06;5.32;;;1.65;;
60312;SDS011;46158;52.850;6.970;2024-03-23T12:24:33;7.05;;;1.80;;
60312;SDS011;46158;52.850;6.970;2024-03-23T12:27:03;3.38;;;1.70;;
60312;SDS011;46158;52.850;6.970;2024-03-23T12:29:32;3.58;;;1.73;;
60312;SDS011;46158;52.850;6.970;2024-03-23T12:32:01;4.90;;;1.58;;
60312;SDS011;46158;52.850;6.970;2024-03-23T12:34:27;7.80;;;1.70;;
60312;SDS011;46158;52.850;6.970;2024-03-23T12:36:55;5.13;;;1.70;;
60312;SDS011;46158;52.850;6.970;2024-03-23T12:39:21;6.10;;;1.98;;
60312;SDS011;46158;52.850;6.970;2024-03-23T12:41:47;5.18;;;1.85;;
60312;SDS011;46158;52.850;6.970;2024-03-23T12:44:14;6.72;;;1.75;;
60312;SDS011;46158;52.850;6.970;2024-03-23T12:46:40;6.75;;;1.65;;
60312;SDS011;46158;52.850;6.970;2024-03-23T12:49:09;4.68;;;1.70;;
60312;SDS011;46158;52.850;6.970;2024-03-23T12:51:35;5.97;;;1.98;;
60312;SDS011;46158;52.850;6.970;2024-03-23T12:54:01;3.63;;;1.40;;
60312;SDS011;46158;52.850;6.970;2024-03-23T12:56:26;6.07;;;1.83;;
60312;SDS011;46158;52.850;6.970;2024-03-23T12:58:55;5.25;;;1.65;;
60312;SDS011;46158;52.850;6.970;2024-03-23T13:01:24;7.07;;;1.85;;
60312;SDS011;46158;52.850;6.970;2024-03-23T13:03:50;2.50;;;1.50;;
60312;SDS011;46158;52.850;6.970;2024-03-23T13:06:16;6.22;;;1.80;;
60312;SDS011;46158;52.850;6.970;2024-03-23T13:08:52;5.97;;;1.70;;
60312;SDS011;46158;52.850;6.970;2024-03-23T13:11:19;9.13;;;1.77;;
60312;SDS011;46158;52.850;6.970;2024-03-23T13:13:45;3.97;;;1.60;;
60312;SDS011;46158;52.850;6.970;2024-03-23T13:16:11;11.45;;;1.90;;
60312;SDS011;46158;52.850;6.970;2024-03-23T13:18:36;11.10;;;2.00;;
60312;SDS011;46158;52.850;6.970;2024-03-23T13:21:02;5.07;;;1.80;;
60312;SDS011;46158;52.850;6.970;2024-03-23T13:23:29;12.77;;;2.20;;
60312;SDS011;46158;52.850;6.970;2024-03-23T13:25:56;6.35;;;2.08;;
60312;SDS011;46158;52.850;6.970;2024-03-23T13:28:22;10.75;;;1.90;;
60312;SDS011;46158;52.850;6.970;2024-03-23T13:30:54;5.00;;;1.70;;
60312;SDS011;46158;52.850;6.970;2024-03-23T13:33:21;9.27;;;1.90;;
60312;SDS011;46158;52.850;6.970;2024-03-23T13:35:53;5.50;;;1.80;;
60312;SDS011;46158;52.850;6.970;2024-03-23T13:38:21;6.30;;;1.67;;
60312;SDS011;46158;52.850;6.970;2024-03-23T13:40:56;5.28;;;1.52;;
60312;SDS011;46158;52.850;6.970;2024-03-23T13:43:24;10.65;;;2.17;;
60312;SDS011;46158;52.850;6.970;2024-03-23T13:45:58;8.30;;;1.90;;
60312;SDS011;46158;52.850;6.970;2024-03-23T13:48:25;8.45;;;1.83;;
60312;SDS011;46158;52.850;6.970;2024-03-23T13:51:01;11.65;;;2.00;;
60312;SDS011;46158;52.850;6.970;2024-03-23T13:53:28;12.45;;;2.38;;
60312;SDS011;46158;52.850;6.970;2024-03-23T13:55:54;10.27;;;1.88;;
60312;SDS011;46158;52.850;6.970;2024-03-23T13:58:20;12.95;;;2.30;;
60312;SDS011;46158;52.850;6.970;2024-03-23T14:00:45;11.32;;;2.05;;
60312;SDS011;46158;52.850;6.970;2024-03-23T14:03:11;12.35;;;2.08;;
60312;SDS011;46158;52.850;6.970;2024-03-23T14:05:38;12.25;;;2.15;;
60312;SDS011;46158;52.850;6.970;2024-03-23T14:08:04;7.35;;;1.85;;
60312;SDS011;46158;52.850;6.970;2024-03-23T14:10:31;7.80;;;1.80;;
60312;SDS011;46158;52.850;6.970;2024-03-23T14:12:56;12.00;;;2.08;;
60312;SDS011;46158;52.850;6.970;2024-03-23T14:15:22;8.52;;;2.00;;
60312;SDS011;46158;52.850;6.970;2024-03-23T14:17:48;8.80;;;2.30;;
60312;SDS011;46158;52.850;6.970;2024-03-23T14:20:14;7.82;;;2.10;;
60312;SDS011;46158;52.850;6.970;2024-03-23T14:22:40;12.05;;;2.17;;
60312;SDS011;46158;52.850;6.970;2024-03-23T14:25:06;9.30;;;2.03;;
60312;SDS011;46158;52.850;6.970;2024-03-23T14:27:32;10.50;;;1.70;;
60312;SDS011;46158;52.850;6.970;2024-03-23T14:30:03;10.38;;;2.35;;
60312;SDS011;46158;52.850;6.970;2024-03-23T14:32:32;7.25;;;1.83;;
60312;SDS011;46158;52.850;6.970;2024-03-23T14:35:05;8.63;;;2.00;;
60312;SDS011;46158;52.850;6.970;2024-03-23T14:37:38;13.77;;;3.40;;
60312;SDS011;46158;52.850;6.970;2024-03-23T14:40:04;12.13;;;2.67;;
60312;SDS011;46158;52.850;6.970;2024-03-23T14:42:31;10.50;;;2.60;;
60312;SDS011;46158;52.850;6.970;2024-03-23T14:44:57;9.93;;;2.40;;
60312;SDS011;46158;52.850;6.970;2024-03-23T14:47:23;9.32;;;2.50;;
60312;SDS011;46158;52.850;6.970;2024-03-23T14:49:49;7.70;;;2.28;;
60312;SDS011;46158;52.850;6.970;2024-03-23T14:52:18;10.05;;;2.38;;
60312;SDS011;46158;52.850;6.970;2024-03-23T14:54:45;9.30;;;2.83;;
60312;SDS011;46158;52.850;6.970;2024-03-23T14:57:11;9.60;;;2.38;;
60312;SDS011;46158;52.850;6.970;2024-03-23T14:59:37;8.73;;;2.53;;
60312;SDS011;46158;52.850;6.970;2024-03-23T15:02:03;12.30;;;2.50;;
60312;SDS011;46158;52.850;6.970;2024-03-23T15:04:29;10.75;;;2.40;;
60312;SDS011;46158;52.850;6.970;2024-03-23T15:06:55;10.20;;;2.40;;
60312;SDS011;46158;52.850;6.970;2024-03-23T15:09:21;6.78;;;2.17;;
60312;SDS011;46158;52.850;6.970;2024-03-23T15:11:46;9.68;;;2.17;;
60312;SDS011;46158;52.850;6.970;2024-03-23T15:14:12;7.97;;;2.25;;
60312;SDS011;46158;52.850;6.970;2024-03-23T15:16:37;11.57;;;2.30;;
60312;SDS011;46158;52.850;6.970;2024-03-23T15:19:03;14.60;;;2.30;;
60312;SDS011;46158;52.850;6.970;2024-03-23T15:21:31;11.77;;;2.47;;
60312;SDS011;46158;52.850;6.970;2024-03-23T15:23:57;11.43;;;2.38;;
60312;SDS011;46158;52.850;6.970;2024-03-23T15:26:22;9.68;;;2.42;;
60312;SDS011;46158;52.850;6.970;2024-03-23T15:28:48;10.45;;;2.55;;
60312;SDS011;46158;52.850;6.970;2024-03-23T15:31:23;8.73;;;1.83;;
60312;SDS011;46158;52.850;6.970;2024-03-23T15:33:50;7.43;;;2.33;;
60312;SDS011;46158;52.850;6.970;2024-03-23T15:36:16;9.68;;;2.15;;
60312;SDS011;46158;52.850;6.970;2024-03-23T15:38:42;11.80;;;2.38;;
60312;SDS011;46158;52.850;6.970;2024-03-23T15:41:09;13.65;;;2.40;;
60312;SDS011;46158;52.850;6.970;2024-03-23T15:43:35;12.35;;;2.35;;
60312;SDS011;46158;52.850;6.970;2024-03-23T15:46:02;14.25;;;2.40;;
60312;SDS011;46158;52.850;6.970;2024-03-23T15:48:29;14.65;;;2.70;;
60312;SDS011;46158;52.850;6.970;2024-03-23T15:50:56;6.60;;;2.10;;
60312;SDS011;46158;52.850;6.970;2024-03-23T15:58:21;12.70;;;2.47;;
60312;SDS011;46158;52.850;6.970;2024-03-23T16:03:26;9.43;;;1.85;;
60312;SDS011;46158;52.850;6.970;2024-03-23T16:08:18;11.77;;;2.17;;
60312;SDS011;46158;52.850;6.970;2024-03-23T16:10:44;8.88;;;2.47;;